createdAt,value
2017-07-29T00:00:27.573Z,7.10
2017-07-29T00:02:55.059Z,5.50
2017-07-29T00:05:22.502Z,8.07
2017-07-29T00:07:50.012Z,7.30
2017-07-29T00:10:17.832Z,7.43
2017-07-29T00:12:45.464Z,6.43
2017-07-29T00:15:12.916Z,7.23
2017-07-29T00:17:40.452Z,6.10
2017-07-29T00:20:08.116Z,6.90
2017-07-29T00:22:35.565Z,6.67
2017-07-29T00:25:03.154Z,6.10
2017-07-29T00:27:30.633Z,6.90
2017-07-29T00:29:58.081Z,7.67
2017-07-29T00:32:25.538Z,7.83
2017-07-29T00:34:53.241Z,8.00
2017-07-29T00:37:20.725Z,6.40
2017-07-29T00:39:48.192Z,6.07
2017-07-29T00:42:15.870Z,6.43
2017-07-29T00:44:43.386Z,7.40
2017-07-29T00:47:10.854Z,5.80
2017-07-29T00:49:38.318Z,7.17
2017-07-29T00:52:05.829Z,6.47
2017-07-29T00:54:33.403Z,5.43
2017-07-29T00:57:00.859Z,7.10
2017-07-29T00:59:28.306Z,7.07
2017-07-29T01:01:55.888Z,6.63
2017-07-29T01:04:23.329Z,6.60
2017-07-29T01:06:51.085Z,7.50
2017-07-29T01:09:18.573Z,7.20
2017-07-29T01:11:46.017Z,6.23
2017-07-29T01:14:13.493Z,7.60
2017-07-29T01:16:40.940Z,7.10
2017-07-29T01:19:08.730Z,7.40
2017-07-29T01:21:36.180Z,7.40
2017-07-29T01:24:03.625Z,6.87
2017-07-29T01:26:31.097Z,6.80
2017-07-29T01:28:58.874Z,6.23
2017-07-29T01:31:26.321Z,6.27
2017-07-29T01:33:53.790Z,5.93
2017-07-29T01:36:21.313Z,6.60
2017-07-29T01:38:49.044Z,7.20
2017-07-29T01:41:16.512Z,6.00
2017-07-29T01:43:43.966Z,6.67
2017-07-29T01:46:11.449Z,6.20
2017-07-29T01:48:39.645Z,6.27
2017-07-29T01:51:07.100Z,6.30
2017-07-29T01:53:34.549Z,7.83
2017-07-29T01:56:02.031Z,7.13
2017-07-29T01:58:29.890Z,5.63
2017-07-29T02:00:57.334Z,6.13
2017-07-29T02:03:24.797Z,5.33
2017-07-29T02:05:52.244Z,6.53
2017-07-29T02:08:19.715Z,8.00
2017-07-29T02:10:47.170Z,6.90
2017-07-29T02:13:14.617Z,7.60
2017-07-29T02:15:42.101Z,7.87
2017-07-29T02:18:09.550Z,7.27
2017-07-29T02:20:36.997Z,6.70
2017-07-29T02:23:04.474Z,6.43
2017-07-29T02:25:31.933Z,7.27
2017-07-29T02:27:59.373Z,5.90
2017-07-29T02:30:26.851Z,6.03
2017-07-29T02:32:54.296Z,6.70
2017-07-29T02:35:21.738Z,7.93
2017-07-29T02:37:49.210Z,7.07
2017-07-29T02:40:16.669Z,6.40
2017-07-29T02:42:44.472Z,8.20
2017-07-29T02:45:11.917Z,7.57
2017-07-29T02:47:39.359Z,7.17
2017-07-29T02:50:06.826Z,7.10
2017-07-29T02:52:34.269Z,6.50
2017-07-29T02:55:01.756Z,7.03
2017-07-29T02:57:29.213Z,8.60
2017-07-29T02:59:56.675Z,6.63
2017-07-29T03:02:24.460Z,7.13
2017-07-29T03:04:51.904Z,7.47
2017-07-29T03:07:19.350Z,7.27
2017-07-29T03:09:46.830Z,8.83
2017-07-29T03:12:14.300Z,6.70
2017-07-29T03:14:41.759Z,6.33
2017-07-29T03:17:09.231Z,7.20
2017-07-29T03:19:36.673Z,8.43
2017-07-29T03:22:04.148Z,7.37
2017-07-29T03:24:31.603Z,7.77
2017-07-29T03:26:59.078Z,8.80
2017-07-29T03:29:26.834Z,7.90
2017-07-29T03:31:54.280Z,8.97
2017-07-29T03:34:21.738Z,8.63
2017-07-29T03:36:49.526Z,7.70
2017-07-29T03:39:16.989Z,7.20
2017-07-29T03:41:44.444Z,7.40
2017-07-29T03:44:11.904Z,7.67
2017-07-29T03:46:39.356Z,8.20
2017-07-29T03:49:06.838Z,8.27
2017-07-29T03:51:34.288Z,8.53
2017-07-29T03:54:01.735Z,8.33
2017-07-29T03:56:29.504Z,8.33
2017-07-29T03:58:56.953Z,8.40
2017-07-29T04:01:24.389Z,7.90
2017-07-29T04:03:51.862Z,7.50
2017-07-29T04:06:19.328Z,6.67
2017-07-29T04:08:46.797Z,8.60
2017-07-29T04:11:14.268Z,7.63
2017-07-29T04:13:41.748Z,8.47
2017-07-29T04:16:09.197Z,7.40
2017-07-29T04:18:37.249Z,7.30
2017-07-29T04:21:05.022Z,8.30
2017-07-29T04:23:32.473Z,8.03
2017-07-29T04:25:59.924Z,6.70
2017-07-29T04:28:27.710Z,7.70
2017-07-29T04:30:55.156Z,6.37
2017-07-29T04:33:22.613Z,7.63
2017-07-29T04:35:50.080Z,7.57
2017-07-29T04:38:17.548Z,7.43
2017-07-29T04:40:45.020Z,6.70
2017-07-29T04:43:12.472Z,15.23
2017-07-29T04:45:39.921Z,7.60
2017-07-29T04:48:07.390Z,7.50
2017-07-29T04:50:34.836Z,6.33
2017-07-29T04:53:02.278Z,8.13
2017-07-29T04:55:30.083Z,6.83
2017-07-29T04:57:57.530Z,6.90
2017-07-29T05:00:24.977Z,7.87
2017-07-29T05:02:52.453Z,7.87
2017-07-29T05:05:19.898Z,8.03
2017-07-29T05:07:47.365Z,7.10
2017-07-29T05:10:14.814Z,7.60
2017-07-29T05:12:42.615Z,8.43
2017-07-29T05:15:10.073Z,24.23
2017-07-29T05:17:37.529Z,10.33
2017-07-29T05:20:05.003Z,10.60
2017-07-29T05:22:32.484Z,9.73
2017-07-29T05:24:59.933Z,9.40
2017-07-29T05:27:27.387Z,10.10
2017-07-29T05:29:54.858Z,10.53
2017-07-29T05:32:22.313Z,10.47
2017-07-29T05:34:49.799Z,10.83
2017-07-29T05:37:17.293Z,8.27
2017-07-29T05:39:44.758Z,11.10
2017-07-29T05:42:12.209Z,11.60
2017-07-29T05:44:39.689Z,12.67
2017-07-29T05:47:07.169Z,16.33
2017-07-29T05:49:34.625Z,11.90
2017-07-29T05:52:02.097Z,12.43
2017-07-29T05:54:29.553Z,13.30
2017-07-29T05:56:57.190Z,17.30
2017-07-29T05:59:24.640Z,27.07
2017-07-29T06:01:52.102Z,22.90
2017-07-29T06:04:19.573Z,23.73
2017-07-29T06:06:47.044Z,24.30
2017-07-29T06:09:14.625Z,26.37
2017-07-29T06:11:42.096Z,25.37
2017-07-29T06:14:09.553Z,24.93
2017-07-29T06:16:37.033Z,24.00
2017-07-29T06:19:04.517Z,22.67
2017-07-29T06:21:31.985Z,17.70
2017-07-29T06:23:59.453Z,15.20
2017-07-29T06:26:26.903Z,14.03
2017-07-29T06:28:54.386Z,11.43
2017-07-29T06:31:21.885Z,10.93
2017-07-29T06:33:49.345Z,9.73
2017-07-29T06:36:16.811Z,8.10
2017-07-29T06:38:44.276Z,6.73
2017-07-29T06:41:11.726Z,6.70
2017-07-29T06:43:39.184Z,5.60
2017-07-29T06:46:06.677Z,7.27
2017-07-29T06:48:35.368Z,5.80
2017-07-29T06:51:04.591Z,7.10
2017-07-29T06:53:33.703Z,6.97
2017-07-29T06:56:03.004Z,6.70
2017-07-29T06:58:32.654Z,6.43
2017-07-29T07:01:02.026Z,5.20
2017-07-29T07:03:31.367Z,7.00
2017-07-29T07:06:00.881Z,7.53
2017-07-29T07:08:28.465Z,6.20
2017-07-29T07:10:55.945Z,7.00
2017-07-29T07:13:23.424Z,7.63
2017-07-29T07:15:50.877Z,6.57
2017-07-29T07:18:18.729Z,5.70
2017-07-29T07:20:46.232Z,8.63
2017-07-29T07:23:13.710Z,6.83
2017-07-29T07:25:41.188Z,7.50
2017-07-29T07:28:08.647Z,6.90
2017-07-29T07:30:36.129Z,7.97
2017-07-29T07:33:03.581Z,6.97
2017-07-29T07:35:31.033Z,8.67
2017-07-29T07:37:58.516Z,6.83
2017-07-29T07:40:26.008Z,6.90
2017-07-29T07:42:53.577Z,6.87
2017-07-29T07:45:21.041Z,6.27
2017-07-29T07:47:48.695Z,5.60
2017-07-29T07:50:16.302Z,5.37
2017-07-29T07:52:43.773Z,6.40
2017-07-29T07:55:11.355Z,6.00
2017-07-29T07:57:38.918Z,5.70
2017-07-29T08:00:06.382Z,5.40
2017-07-29T08:02:33.961Z,6.10
2017-07-29T08:05:01.577Z,6.40
2017-07-29T08:07:29.304Z,6.03
2017-07-29T08:09:56.827Z,5.73
2017-07-29T08:12:24.280Z,9.53
2017-07-29T08:14:51.734Z,7.47
2017-07-29T08:17:19.201Z,9.90
2017-07-29T08:19:46.698Z,6.60
2017-07-29T08:22:14.146Z,6.77
2017-07-29T08:24:41.640Z,11.20
2017-07-29T08:27:09.098Z,11.53
2017-07-29T08:29:36.575Z,5.90
2017-07-29T08:32:04.032Z,4.77
2017-07-29T08:34:31.506Z,3.70
2017-07-29T08:36:58.976Z,4.97
2017-07-29T08:39:26.623Z,5.63
2017-07-29T08:41:54.134Z,4.90
2017-07-29T08:44:21.611Z,6.07
2017-07-29T08:46:49.106Z,4.73
2017-07-29T08:49:16.577Z,4.63
2017-07-29T08:51:44.145Z,2.80
2017-07-29T08:54:11.591Z,3.47
2017-07-29T08:56:39.036Z,2.90
2017-07-29T08:59:06.502Z,3.50
2017-07-29T09:01:33.944Z,3.07
2017-07-29T09:04:01.418Z,3.30
2017-07-29T09:06:28.905Z,3.27
2017-07-29T09:08:56.358Z,3.00
2017-07-29T09:11:23.817Z,3.30
2017-07-29T09:13:51.282Z,3.10
2017-07-29T09:16:18.740Z,3.03
2017-07-29T09:18:46.268Z,2.90
2017-07-29T09:21:13.754Z,3.03
2017-07-29T09:23:41.209Z,3.30
2017-07-29T09:26:08.649Z,2.90
2017-07-29T09:28:36.129Z,3.43
2017-07-29T09:31:03.608Z,3.40
2017-07-29T09:33:31.092Z,3.33
2017-07-29T09:35:58.570Z,3.03
2017-07-29T09:38:26.041Z,3.27
2017-07-29T09:40:53.484Z,3.30
2017-07-29T09:43:20.959Z,3.90
2017-07-29T09:45:48.532Z,2.67
2017-07-29T09:48:15.984Z,1.90
2017-07-29T09:50:43.433Z,3.53
2017-07-29T09:53:10.898Z,2.27
2017-07-29T09:55:38.345Z,2.33
2017-07-29T09:58:05.800Z,2.67
2017-07-29T10:00:33.277Z,2.53
2017-07-29T10:03:00.743Z,3.50
2017-07-29T10:05:28.198Z,2.80
2017-07-29T10:07:55.650Z,2.43
2017-07-29T10:10:23.120Z,2.97
2017-07-29T10:12:50.563Z,2.30
2017-07-29T10:15:18.045Z,2.10
2017-07-29T10:17:45.502Z,2.23
2017-07-29T10:20:12.957Z,2.20
2017-07-29T10:22:40.685Z,2.57
2017-07-29T10:25:08.129Z,2.67
2017-07-29T10:27:35.590Z,2.70
2017-07-29T10:30:03.056Z,4.60
2017-07-29T10:32:30.501Z,2.37
2017-07-29T10:34:58.292Z,2.07
2017-07-29T10:37:25.757Z,2.50
2017-07-29T10:39:53.196Z,2.23
2017-07-29T10:42:20.716Z,2.13
2017-07-29T10:44:48.284Z,2.27
2017-07-29T10:47:15.781Z,2.60
2017-07-29T10:49:43.232Z,2.80
2017-07-29T10:52:10.797Z,2.27
2017-07-29T10:54:38.245Z,2.50
2017-07-29T10:57:05.683Z,2.53
2017-07-29T10:59:33.152Z,2.27
2017-07-29T11:02:00.600Z,2.10
2017-07-29T11:04:28.164Z,2.40
2017-07-29T11:06:55.608Z,5.80
2017-07-29T11:09:23.082Z,3.30
2017-07-29T11:11:50.542Z,2.03
2017-07-29T11:14:18.054Z,2.30
2017-07-29T11:16:45.512Z,2.27
2017-07-29T11:19:12.981Z,2.70
2017-07-29T11:21:40.665Z,2.67
2017-07-29T11:24:08.112Z,2.23
2017-07-29T11:26:35.568Z,1.80
2017-07-29T11:29:03.065Z,2.30
2017-07-29T11:31:30.515Z,2.17
2017-07-29T11:33:57.989Z,1.90
2017-07-29T11:36:25.433Z,2.20
2017-07-29T11:38:52.921Z,2.13
2017-07-29T11:41:20.387Z,2.17
2017-07-29T11:43:47.841Z,2.63
2017-07-29T11:46:15.319Z,2.90
2017-07-29T11:48:42.773Z,2.60
2017-07-29T11:51:10.237Z,2.90
2017-07-29T11:53:37.669Z,5.03
2017-07-29T11:56:05.278Z,3.27
2017-07-29T11:58:32.733Z,4.47
2017-07-29T12:01:00.201Z,2.53
2017-07-29T12:03:27.648Z,2.30
2017-07-29T12:05:55.305Z,2.97
2017-07-29T12:08:22.762Z,2.97
2017-07-29T12:10:50.237Z,2.87
2017-07-29T12:13:17.680Z,2.80
2017-07-29T12:15:45.209Z,2.30
2017-07-29T12:18:12.688Z,2.00
2017-07-29T12:20:40.148Z,2.17
2017-07-29T12:23:07.614Z,2.10
2017-07-29T12:25:35.063Z,2.70
2017-07-29T12:28:02.651Z,4.33
2017-07-29T12:30:30.147Z,2.80
2017-07-29T12:32:57.588Z,2.43
2017-07-29T12:35:25.177Z,2.30
2017-07-29T12:37:52.628Z,1.87
2017-07-29T12:40:20.096Z,2.10
2017-07-29T12:42:47.740Z,2.17
2017-07-29T12:45:15.202Z,2.00
2017-07-29T12:47:42.665Z,1.90
2017-07-29T12:50:10.204Z,2.30
2017-07-29T12:52:37.665Z,2.43
2017-07-29T12:55:05.133Z,2.33
2017-07-29T12:57:32.585Z,1.90
2017-07-29T13:00:00.068Z,2.43
2017-07-29T13:02:27.525Z,2.57
2017-07-29T13:04:54.973Z,2.60
2017-07-29T13:07:22.510Z,2.17
2017-07-29T13:09:49.980Z,6.23
2017-07-29T13:12:17.452Z,2.00
2017-07-29T13:14:44.899Z,3.13
2017-07-29T13:17:12.364Z,2.50
2017-07-29T13:19:39.805Z,2.20
2017-07-29T13:22:07.259Z,2.27
2017-07-29T13:24:34.737Z,2.57
2017-07-29T13:27:02.200Z,2.47
2017-07-29T13:29:29.640Z,2.30
2017-07-29T13:31:57.088Z,2.00
2017-07-29T13:34:24.561Z,2.30
2017-07-29T13:36:52.039Z,2.20
2017-07-29T13:39:19.516Z,2.87
2017-07-29T13:41:46.981Z,3.03
2017-07-29T13:44:14.469Z,3.27
2017-07-29T13:46:41.916Z,3.40
2017-07-29T13:49:09.370Z,2.80
2017-07-29T13:51:36.840Z,2.47
2017-07-29T13:54:04.434Z,2.27
2017-07-29T13:56:31.897Z,2.27
2017-07-29T13:58:59.347Z,2.80
2017-07-29T14:01:26.822Z,2.20
2017-07-29T14:03:54.271Z,2.50
2017-07-29T14:06:21.761Z,2.50
2017-07-29T14:08:49.198Z,2.40
2017-07-29T14:11:16.692Z,3.10
2017-07-29T14:13:44.342Z,3.13
2017-07-29T14:16:11.832Z,2.13
2017-07-29T14:18:39.276Z,2.20
2017-07-29T14:21:06.753Z,2.20
2017-07-29T14:23:34.225Z,2.30
2017-07-29T14:26:01.682Z,2.67
2017-07-29T14:28:29.238Z,2.60
2017-07-29T14:30:56.775Z,2.80
2017-07-29T14:33:24.249Z,2.77
2017-07-29T14:35:51.747Z,2.30
2017-07-29T14:38:19.219Z,2.80
2017-07-29T14:40:46.701Z,2.30
2017-07-29T14:43:14.195Z,2.73
2017-07-29T14:45:41.640Z,2.20
2017-07-29T14:48:26.340Z,2.70
2017-07-29T14:50:53.785Z,2.33
2017-07-29T14:53:21.252Z,3.10
2017-07-29T14:55:49.014Z,2.30
2017-07-29T14:58:16.452Z,2.57
2017-07-29T15:00:43.893Z,1.97
2017-07-29T15:03:11.364Z,2.10
2017-07-29T15:05:38.808Z,3.10
2017-07-29T15:08:06.282Z,2.73
2017-07-29T15:10:33.731Z,2.30
2017-07-29T15:13:01.200Z,2.80
2017-07-29T15:15:28.665Z,2.60
2017-07-29T15:20:33.124Z,2.20
2017-07-29T15:23:00.585Z,2.50
2017-07-29T15:25:28.029Z,2.97
2017-07-29T15:27:55.500Z,2.60
2017-07-29T15:30:22.976Z,2.23
2017-07-29T15:32:50.417Z,2.60
2017-07-29T15:35:17.861Z,2.30
2017-07-29T15:37:45.334Z,2.77
2017-07-29T15:40:12.801Z,3.03
2017-07-29T15:42:40.269Z,2.57
2017-07-29T15:45:07.736Z,2.20
2017-07-29T15:47:35.492Z,2.80
2017-07-29T15:50:02.936Z,2.67
2017-07-29T15:52:30.394Z,2.50
2017-07-29T15:54:57.872Z,2.93
2017-07-29T15:57:25.317Z,2.13
2017-07-29T15:59:52.769Z,2.40
2017-07-29T16:02:20.558Z,2.07
2017-07-29T16:04:48.320Z,2.23
2017-07-29T16:07:16.321Z,3.20
2017-07-29T16:09:43.770Z,2.73
2017-07-29T16:12:11.560Z,1.83
2017-07-29T16:14:39.005Z,2.43
2017-07-29T16:17:06.716Z,2.23
2017-07-29T16:19:34.544Z,2.30
2017-07-29T16:22:02.393Z,2.30
2017-07-29T16:24:30.196Z,1.90
2017-07-29T16:26:57.913Z,3.13
2017-07-29T16:29:25.362Z,2.07
2017-07-29T16:31:52.805Z,2.03
2017-07-29T16:34:20.305Z,2.20
2017-07-29T16:36:47.764Z,2.57
2017-07-29T16:39:15.246Z,2.27
2017-07-29T16:41:42.774Z,4.40
2017-07-29T16:44:10.444Z,2.10
2017-07-29T16:46:37.893Z,2.57
2017-07-29T16:49:05.336Z,1.97
2017-07-29T16:51:34.298Z,2.13
2017-07-29T16:54:01.868Z,2.20
2017-07-29T16:56:29.349Z,1.90
2017-07-29T16:58:56.829Z,1.77
2017-07-29T17:01:24.272Z,2.33
2017-07-29T17:03:51.741Z,1.73
2017-07-29T17:06:19.181Z,2.57
2017-07-29T17:08:46.648Z,2.50
2017-07-29T17:11:14.437Z,2.03
2017-07-29T17:13:41.925Z,2.30
2017-07-29T17:16:09.387Z,15.10
2017-07-29T17:18:36.845Z,1.90
2017-07-29T17:21:04.321Z,2.00
2017-07-29T17:23:31.850Z,2.20
2017-07-29T17:25:59.296Z,3.90
2017-07-29T17:28:26.745Z,44.63
2017-07-29T17:30:54.213Z,4.10
2017-07-29T17:33:21.658Z,1.87
2017-07-29T17:35:49.149Z,1.87
2017-07-29T17:38:16.593Z,1.90
2017-07-29T17:40:44.061Z,1.90
2017-07-29T17:43:11.529Z,2.30
2017-07-29T17:45:38.989Z,7.13
2017-07-29T17:48:06.456Z,2.10
2017-07-29T17:50:33.896Z,2.60
2017-07-29T17:53:01.373Z,2.77
2017-07-29T17:55:28.822Z,2.20
2017-07-29T17:57:56.286Z,3.40
2017-07-29T18:00:23.857Z,2.23
2017-07-29T18:02:51.370Z,2.80
2017-07-29T18:05:18.786Z,4.60
2017-07-29T18:07:46.265Z,36.90
2017-07-29T18:10:13.747Z,54.03
2017-07-29T18:12:41.221Z,56.50
2017-07-29T18:15:08.683Z,21.37
2017-07-29T18:17:36.165Z,15.40
2017-07-29T18:20:03.617Z,9.90
2017-07-29T18:22:31.357Z,9.83
2017-07-29T18:24:58.862Z,8.43
2017-07-29T18:27:26.305Z,5.83
2017-07-29T18:29:53.780Z,5.70
2017-07-29T18:32:21.253Z,3.73
2017-07-29T18:34:48.717Z,5.00
2017-07-29T18:37:16.156Z,5.53
2017-07-29T18:39:43.601Z,3.93
2017-07-29T18:42:11.064Z,4.00
2017-07-29T18:44:38.525Z,3.03
2017-07-29T18:47:05.984Z,3.50
2017-07-29T18:49:33.435Z,4.07
2017-07-29T18:52:01.145Z,48.70
2017-07-29T18:54:28.602Z,37.70
2017-07-29T18:56:56.080Z,11.90
2017-07-29T18:59:23.827Z,4.43
2017-07-29T19:01:51.281Z,8.70
2017-07-29T19:04:18.727Z,7.93
2017-07-29T19:06:46.201Z,4.87
2017-07-29T19:09:13.640Z,5.20
2017-07-29T19:11:41.101Z,17.93
2017-07-29T19:14:08.580Z,42.23
2017-07-29T19:16:36.041Z,12.80
2017-07-29T19:19:03.486Z,6.47
2017-07-29T19:21:30.984Z,6.10
2017-07-29T19:23:58.430Z,5.83
2017-07-29T19:26:25.892Z,5.83
2017-07-29T19:28:53.368Z,5.47
2017-07-29T19:31:20.849Z,4.90
2017-07-29T19:33:48.293Z,4.80
2017-07-29T19:36:15.749Z,4.40
2017-07-29T19:38:43.227Z,3.70
2017-07-29T19:41:10.672Z,3.63
2017-07-29T19:43:38.113Z,4.03
2017-07-29T19:46:05.585Z,3.87
2017-07-29T19:48:33.049Z,4.27
2017-07-29T19:51:00.489Z,3.77
2017-07-29T19:53:27.986Z,7.83
2017-07-29T19:55:55.437Z,10.43
2017-07-29T19:58:22.897Z,14.93
2017-07-29T20:00:50.372Z,17.17
2017-07-29T20:03:17.865Z,9.30
2017-07-29T20:05:45.542Z,4.87
2017-07-29T20:08:12.993Z,4.90
2017-07-29T20:10:40.445Z,4.00
2017-07-29T20:13:07.918Z,5.30
2017-07-29T20:15:35.376Z,4.50
2017-07-29T20:18:02.865Z,4.57
2017-07-29T20:20:30.341Z,3.63
2017-07-29T20:22:57.821Z,4.57
2017-07-29T20:25:25.622Z,4.97
2017-07-29T20:27:53.096Z,7.17
2017-07-29T20:32:57.445Z,5.50
2017-07-29T20:35:24.913Z,5.50
2017-07-29T20:37:52.390Z,4.57
2017-07-29T20:40:20.739Z,4.50
2017-07-29T20:42:48.968Z,4.23
2017-07-29T20:45:16.409Z,4.73
2017-07-29T20:47:44.065Z,4.60
2017-07-29T20:50:11.802Z,5.13
2017-07-29T20:52:39.261Z,6.40
2017-07-29T20:55:06.709Z,6.30
2017-07-29T20:57:34.337Z,5.93
2017-07-29T21:00:01.788Z,5.70
2017-07-29T21:02:29.255Z,5.30
2017-07-29T21:04:56.703Z,6.03
2017-07-29T21:07:24.594Z,6.37
2017-07-29T21:09:52.056Z,5.40
2017-07-29T21:12:19.488Z,4.60
2017-07-29T21:14:46.953Z,4.33
2017-07-29T21:17:14.700Z,4.43
2017-07-29T21:19:42.552Z,4.07
2017-07-29T21:22:10.296Z,4.37
2017-07-29T21:24:37.737Z,5.53
2017-07-29T21:27:05.820Z,5.80
2017-07-29T21:29:34.045Z,3.97
2017-07-29T21:32:01.496Z,4.20
2017-07-29T21:34:28.971Z,5.17
2017-07-29T21:36:56.420Z,5.23
2017-07-29T21:39:23.878Z,5.43
2017-07-29T21:41:51.349Z,5.00
2017-07-29T21:44:18.798Z,4.47
2017-07-29T21:46:46.269Z,4.60
2017-07-29T21:49:13.709Z,4.60
2017-07-29T21:51:41.178Z,5.43
2017-07-29T21:54:08.636Z,4.97
2017-07-29T21:56:36.083Z,7.93
2017-07-29T21:59:03.752Z,7.10
2017-07-29T22:01:31.207Z,6.57
2017-07-29T22:03:58.654Z,6.97
2017-07-29T22:06:26.112Z,5.90
2017-07-29T22:08:53.549Z,5.00
2017-07-29T22:11:21.028Z,5.63
2017-07-29T22:13:48.477Z,5.23
2017-07-29T22:16:15.961Z,4.83
2017-07-29T22:18:43.410Z,5.10
2017-07-29T22:21:10.852Z,4.97
2017-07-29T22:23:38.341Z,5.00
2017-07-29T22:26:05.793Z,4.20
2017-07-29T22:28:33.234Z,4.67
2017-07-29T22:31:01.044Z,4.73
2017-07-29T22:33:28.484Z,5.80
2017-07-29T22:35:55.925Z,5.17
2017-07-29T22:38:23.398Z,5.87
2017-07-29T22:40:50.837Z,4.37
2017-07-29T22:43:18.297Z,4.80
2017-07-29T22:45:45.761Z,5.50
2017-07-29T22:48:13.209Z,5.50
2017-07-29T22:50:40.652Z,5.83
2017-07-29T22:53:08.124Z,4.90
2017-07-29T22:55:35.597Z,5.90
2017-07-29T22:58:03.044Z,5.37
2017-07-29T23:00:30.489Z,5.30
2017-07-29T23:02:57.976Z,6.87
2017-07-29T23:05:25.429Z,6.47
2017-07-29T23:07:52.873Z,5.43
2017-07-29T23:10:20.348Z,5.80
2017-07-29T23:12:47.792Z,5.60
2017-07-29T23:15:15.268Z,5.20
2017-07-29T23:17:42.712Z,5.50
2017-07-29T23:20:10.189Z,5.10
2017-07-29T23:22:37.659Z,5.77
2017-07-29T23:25:05.111Z,6.47
2017-07-29T23:27:32.581Z,6.63
2017-07-29T23:30:00.034Z,7.03
2017-07-29T23:32:27.518Z,7.60
2017-07-29T23:34:54.965Z,6.97
2017-07-29T23:37:22.442Z,6.73
2017-07-29T23:39:49.885Z,6.80
2017-07-29T23:42:17.334Z,6.73
2017-07-29T23:44:44.801Z,7.30
2017-07-29T23:47:12.247Z,6.70
2017-07-29T23:49:39.718Z,6.40
2017-07-29T23:52:07.163Z,7.00
2017-07-29T23:54:34.988Z,6.43
2017-07-29T23:57:02.429Z,7.20
2017-07-29T23:59:29.868Z,6.30
